Time;durP1;ratioP1;P1;durP2;ratioP2;P2;SDS_P1;SDS_P2;PMS_P1;PMS_P2;Temp;Humidity;BMP_temperature;BMP_pressure;BME280_temperature;BME280_humidity;BME280_pressure;Samples;Min_cycle;Max_cycle;Signal;HPM_P1;HPM_P2
2023/11/12 03:07:43;;;;;;;13.90;9.50;;;;;;;19.21;100.00;98288.73;107113;1254;75313;-83
2023/11/12 03:10:17;;;;;;;14.20;9.40;;;;;;;19.26;100.00;98292.08;106315;1254;68936;-83
2023/11/12 03:12:51;;;;;;;15.50;10.10;;;;;;;19.20;100.00;98297.45;106204;1260;71079;-83
2023/11/12 03:15:25;;;;;;;13.90;9.10;;;;;;;19.04;100.00;98297.45;106370;1253;61657;-82
2023/11/12 03:17:59;;;;;;;13.70;9.20;;;;;;;18.93;100.00;98300.34;106332;1258;60502;-83
2023/11/12 03:20:39;;;;;;;21.50;11.10;;;;;;;18.89;100.00;98310.35;106350;1253;73863;-83
2023/11/12 03:23:07;;;;;;;18.80;11.60;;;;;;;18.99;100.00;98315.38;106393;1253;68842;-83
2023/11/12 03:25:45;;;;;;;14.60;9.80;;;;;;;18.99;100.00;98317.21;106430;1253;72690;-82
2023/11/12 03:28:12;;;;;;;17.00;11.40;;;;;;;18.97;100.00;98320.11;106283;1253;61694;-83
2023/11/12 03:30:46;;;;;;;18.80;11.30;;;;;;;19.09;100.00;98325.23;106302;1253;60502;-82
2023/11/12 03:33:14;;;;;;;14.60;10.40;;;;;;;19.01;100.00;98326.30;106320;1253;73899;-83
2023/11/12 03:35:42;;;;;;;14.90;10.10;;;;;;;19.02;100.00;98329.46;107084;1253;68475;-83
2023/11/12 03:38:11;;;;;;;14.20;9.70;;;;;;;19.11;100.00;98330.47;106382;1254;71320;-83
2023/11/12 03:40:43;;;;;;;16.90;11.40;;;;;;;19.00;100.00;98334.11;106401;1253;61691;-83
2023/11/12 03:43:20;;;;;;;15.70;10.40;;;;;;;19.01;100.00;98333.73;106401;1256;60559;-83
2023/11/12 03:45:48;;;;;;;16.70;10.70;;;;;;;19.23;100.00;98329.17;106243;1254;73912;-83
2023/11/12 03:48:19;;;;;;;15.90;10.50;;;;;;;19.02;100.00;98331.45;106343;1257;69806;-84
2023/11/12 03:50:52;;;;;;;18.00;11.00;;;;;;;18.90;100.00;98328.21;106273;1254;72690;-82
2023/11/12 03:53:23;;;;;;;16.50;10.90;;;;;;;19.09;100.00;98330.52;106382;1253;60547;-83
2023/11/12 03:55:55;;;;;;;19.90;12.40;;;;;;;19.07;100.00;98330.45;106228;1257;60491;-84
2023/11/12 03:58:27;;;;;;;18.10;11.70;;;;;;;18.97;100.00;98328.19;106267;1253;72557;-82
2023/11/12 04:01:00;;;;;;;17.90;10.70;;;;;;;18.95;100.00;98325.25;106254;1253;67410;-83
2023/11/12 04:03:34;;;;;;;17.50;11.30;;;;;;;18.99;100.00;98329.77;106298;1254;72422;-83
2023/11/12 04:06:03;;;;;;;18.30;11.20;;;;;;;18.94;100.00;98324.60;106967;1252;62133;-82
2023/11/12 04:08:47;;;;;;;17.50;11.10;;;;;;;18.85;100.00;98324.55;106376;1253;60354;-83
2023/11/12 04:11:15;;;;;;;18.40;11.40;;;;;;;18.78;100.00;98328.92;106375;1257;72608;-82
2023/11/12 04:13:43;;;;;;;16.90;10.40;;;;;;;18.75;100.00;98330.48;106356;1253;68449;-82
2023/11/12 04:16:12;;;;;;;19.60;11.60;;;;;;;18.86;100.00;98329.77;106450;1254;72693;-81
2023/11/12 04:18:40;;;;;;;14.00;9.70;;;;;;;18.82;100.00;98331.02;106408;1254;60469;-82
2023/11/12 04:21:13;;;;;;;14.50;9.80;;;;;;;18.90;100.00;98330.83;106310;1254;60501;-82
2023/11/12 04:23:44;;;;;;;14.70;9.80;;;;;;;18.62;100.00;98334.88;106877;1253;73835;-83
2023/11/12 04:26:22;;;;;;;15.20;9.30;;;;;;;18.49;100.00;98332.98;106246;1254;68898;-84
2023/11/12 04:28:50;;;;;;;16.00;9.70;;;;;;;18.81;100.00;98330.38;106286;1256;71404;-84
2023/11/12 04:31:23;;;;;;;18.00;11.30;;;;;;;18.55;100.00;98333.42;106274;1253;60540;-83
2023/11/12 04:33:53;;;;;;;15.90;9.30;;;;;;;18.49;100.00;98332.98;106246;1253;60613;-83
2023/11/12 04:36:21;;;;;;;17.20;10.80;;;;;;;18.51;100.00;98330.85;106302;1254;72866;-83
2023/11/12 04:38:49;;;;;;;17.00;9.80;;;;;;;18.54;100.00;98331.35;106574;1256;67230;-82
2023/11/12 04:41:18;;;;;;;15.10;8.80;;;;;;;18.56;100.00;98329.46;106422;1256;71345;-84
2023/11/12 04:43:45;;;;;;;12.50;8.60;;;;;;;18.59;100.00;98337.48;106499;1254;60566;-84
2023/11/12 04:46:21;;;;;;;14.10;8.80;;;;;;;18.66;100.00;98338.31;106381;1253;60521;-83
2023/11/12 04:48:52;;;;;;;12.60;7.40;;;;;;;18.65;100.00;98339.34;106603;1253;74192;-83
2023/11/12 04:51:24;;;;;;;9.60;7.40;;;;;;;18.55;100.00;98341.47;106234;1253;67410;-83
2023/11/12 04:53:57;;;;;;;;;;;;;;;18.53;100.00;98350.23;106632;1254;72629;-84
2023/11/12 04:56:29;;;;;;;11.00;7.30;;;;;;;18.74;100.00;98351.35;106220;1258;60557;-84
2023/11/12 04:59:01;;;;;;;7.60;5.90;;;;;;;18.74;100.00;98356.56;106221;1258;60513;-84
2023/11/12 05:01:33;;;;;;;11.50;7.30;;;;;;;18.71;100.00;98363.25;106300;1253;72559;-83
2023/11/12 05:04:11;;;;;;;9.30;6.10;;;;;;;18.65;100.00;98366.04;106327;1253;68655;-83
2023/11/12 05:06:39;;;;;;;7.70;5.80;;;;;;;18.68;100.00;98368.29;106252;1253;71414;-83
2023/11/12 05:09:11;;;;;;;11.10;5.20;;;;;;;18.61;100.00;98371.31;106246;1257;61633;-84
2023/11/12 05:11:45;;;;;;;9.20;6.50;;;;;;;18.56;100.00;98375.47;106441;1256;60414;-83
2023/11/12 05:14:22;;;;;;;8.00;5.20;;;;;;;18.61;100.00;98374.56;107009;1254;73869;-84
2023/11/12 05:16:55;;;;;;;5.90;4.70;;;;;;;18.58;100.00;98378.55;106829;1253;67148;-83
2023/11/12 05:19:32;;;;;;;7.40;5.10;;;;;;;18.56;100.00;98386.38;106370;1253;72727;-83
2023/11/12 05:21:59;;;;;;;6.90;5.40;;;;;;;18.52;100.00;98386.02;106408;1254;62188;-83
2023/11/12 05:24:35;;;;;;;8.40;5.60;;;;;;;18.42;100.00;98389.65;106520;1254;60368;-83
2023/11/12 05:27:04;;;;;;;8.60;5.60;;;;;;;18.41;100.00;98393.12;106505;1255;74143;-83
2023/11/12 05:29:44;;;;;;;8.40;5.50;;;;;;;18.40;100.00;98398.95;106288;1253;68741;-83
2023/11/12 05:32:12;;;;;;;5.70;4.50;;;;;;;18.41;100.00;98404.41;106384;1258;72647;-84
2023/11/12 05:34:41;;;;;;;7.90;5.10;;;;;;;18.45;100.00;98407.45;106074;1253;60760;-83
2023/11/12 05:37:23;;;;;;;6.90;5.50;;;;;;;18.50;100.00;98408.99;106419;1254;59298;-84
2023/11/12 05:39:52;;;;;;;7.40;5.40;;;;;;;18.36;100.00;98413.29;107263;1253;72626;-83
2023/11/12 05:42:24;;;;;;;8.50;6.10;;;;;;;18.40;100.00;98410.95;106331;1253;66559;-83
2023/11/12 05:44:58;;;;;;;8.80;6.00;;;;;;;18.21;100.00;98415.36;106462;1253;72767;-83
2023/11/12 05:47:28;;;;;;;10.50;6.90;;;;;;;18.13;100.00;98418.44;106244;1256;60464;-83
2023/11/12 05:50:01;;;;;;;9.50;5.80;;;;;;;18.13;100.00;98417.65;106245;1255;60440;-83
2023/11/12 05:52:33;;;;;;;13.30;7.50;;;;;;;18.17;100.00;98423.84;106285;1253;73970;-84
2023/11/12 05:55:05;;;;;;;;;;;;;;;18.23;100.00;98423.51;106687;1253;68466;-83
2023/11/12 05:57:37;;;;;;;13.70;7.50;;;;;;;18.11;100.00;98425.91;106298;1255;71689;-85
2023/11/12 06:00:10;;;;;;;11.30;6.60;;;;;;;18.22;100.00;98427.45;106483;1254;61734;-84
2023/11/12 06:02:48;;;;;;;9.70;6.80;;;;;;;18.23;100.00;98430.47;106140;1255;60385;-84
2023/11/12 06:05:22;;;;;;;11.10;7.30;;;;;;;18.11;100.00;98435.39;106265;1254;73893;-84
2023/11/12 06:07:49;;;;;;;13.80;6.70;;;;;;;18.08;100.00;98436.40;106358;1253;67280;-84
2023/11/12 06:10:17;;;;;;;10.90;6.60;;;;;;;18.03;100.00;98437.59;106368;1253;72628;-84
2023/11/12 06:12:54;;;;;;;11.00;6.50;;;;;;;17.92;100.00;98436.52;106146;1253;60573;-84
2023/11/12 06:15:26;;;;;;;11.10;6.80;;;;;;;17.94;100.00;98432.61;106319;1255;60594;-84
2023/11/12 06:17:54;;;;;;;10.70;6.70;;;;;;;17.94;100.00;98433.33;106325;1253;73838;-84
2023/11/12 06:20:25;;;;;;;12.80;6.90;;;;;;;17.99;100.00;98430.93;106201;1258;68741;-84
2023/11/12 06:22:53;;;;;;;11.60;6.90;;;;;;;18.04;100.00;98432.56;107127;1253;72405;-84
2023/11/12 06:25:25;;;;;;;10.90;7.30;;;;;;;18.21;100.00;98432.27;107652;1255;60535;-84
2023/11/12 06:27:58;;;;;;;11.50;7.20;;;;;;;18.21;100.00;98431.30;106451;1253;60523;-84
2023/11/12 06:30:31;;;;;;;;;;;;;;;18.25;100.00;98432.06;106352;1257;73940;-84
2023/11/12 06:33:00;;;;;;;14.00;7.10;;;;;;;18.19;100.00;98430.59;106434;1257;68403;-84
2023/11/12 06:35:33;;;;;;;11.30;6.00;;;;;;;18.31;100.00;98432.92;106327;1257;72711;-84
2023/11/12 06:38:04;;;;;;;15.50;7.60;;;;;;;18.33;100.00;98435.63;106266;1258;60452;-85
2023/11/12 06:40:37;;;;;;;15.30;8.20;;;;;;;18.34;100.00;98429.95;106237;1258;60361;-84
2023/11/12 06:43:13;;;;;;;15.60;7.80;;;;;;;18.43;100.00;98435.86;106392;1253;73898;-84
2023/11/12 06:45:46;;;;;;;16.10;8.20;;;;;;;18.31;100.00;98432.67;106230;1253;69469;-85
2023/11/12 06:48:18;;;;;;;14.90;7.50;;;;;;;18.19;100.00;98436.75;106361;1256;71608;-84
2023/11/12 06:50:51;;;;;;;13.90;7.70;;;;;;;18.27;100.00;98435.23;106284;1256;62092;-84
2023/11/12 06:53:23;;;;;;;16.20;8.60;;;;;;;18.29;100.00;98438.34;107628;1254;60312;-84
2023/11/12 06:55:57;;;;;;;16.50;8.40;;;;;;;18.18;100.00;98436.27;106710;1256;72552;-84
2023/11/12 06:58:31;;;;;;;15.30;8.00;;;;;;;18.23;100.00;98434.56;106321;1260;68616;-84
2023/11/12 07:01:00;;;;;;;15.40;8.20;;;;;;;18.15;100.00;98433.70;106290;1255;71360;-84
2023/11/12 07:03:32;;;;;;;13.10;6.90;;;;;;;18.09;100.00;98438.85;106433;1256;61751;-84
2023/11/12 07:06:07;;;;;;;13.10;7.70;;;;;;;18.03;100.00;98435.63;106145;1253;60568;-84
2023/11/12 07:08:40;;;;;;;19.40;10.80;;;;;;;18.11;100.00;98436.34;106142;1258;73897;-84
2023/11/12 07:11:14;;;;;;;16.60;8.60;;;;;;;18.04;100.00;98437.39;106036;1260;67180;-84
2023/11/12 07:13:45;;;;;;;15.30;8.70;;;;;;;18.10;100.00;98439.33;106299;1254;72703;-84
2023/11/12 07:16:19;;;;;;;17.90;8.90;;;;;;;18.11;100.00;98439.58;106564;1253;60458;-84
2023/11/12 07:18:52;;;;;;;19.50;9.40;;;;;;;18.12;100.00;98435.88;106377;1261;60458;-85
2023/11/12 07:21:28;;;;;;;19.20;9.70;;;;;;;18.18;100.00;98436.89;106325;1253;73952;-84
2023/11/12 07:24:03;;;;;;;15.80;7.90;;;;;;;18.10;100.00;98443.53;106419;1253;68585;-85
2023/11/12 07:26:35;;;;;;;16.00;8.40;;;;;;;18.13;100.00;98441.65;106832;1253;72783;-84
2023/11/12 07:29:13;;;;;;;17.70;9.00;;;;;;;18.18;100.00;98440.36;106202;1256;60659;-85
2023/11/12 07:31:42;;;;;;;18.10;8.20;;;;;;;18.12;100.00;98439.52;106429;1253;60471;-85
2023/11/12 07:34:13;;;;;;;15.10;7.30;;;;;;;17.98;100.00;98439.52;106449;1253;72541;-85
2023/11/12 07:36:47;;;;;;;14.60;7.50;;;;;;;18.12;100.00;98439.59;107110;1252;68398;-85
2023/11/12 07:39:21;;;;;;;15.70;7.90;;;;;;;18.01;100.00;98440.83;106304;1258;72693;-85
2023/11/12 07:41:54;;;;;;;18.10;7.60;;;;;;;18.05;100.00;98444.89;106351;1253;61314;-85
2023/11/12 07:44:35;;;;;;;19.40;8.20;;;;;;;18.11;100.00;98448.83;106363;1253;60323;-85
2023/11/12 07:47:04;;;;;;;16.10;7.40;;;;;;;18.22;100.00;98446.65;106128;1253;72871;-85
2023/11/12 07:49:33;;;;;;;12.90;6.30;;;;;;;18.30;100.00;98444.43;106754;1256;66793;-85
2023/11/12 07:52:05;;;;;;;9.50;6.10;;;;;;;18.36;100.00;98446.39;106291;1253;72756;-85
2023/11/12 07:54:39;;;;;;;;;;;;;;;18.22;100.00;98444.92;106439;1254;61780;-83
2023/11/12 07:57:10;;;;;;;10.10;6.10;;;;;;;18.13;100.00;98450.50;106543;1256;60435;-85
2023/11/12 07:59:42;;;;;;;13.40;6.40;;;;;;;18.08;100.00;98453.61;106342;1258;73850;-84
2023/11/12 08:02:15;;;;;;;4.80;3.70;;;;;;;18.15;100.00;98449.19;106791;1253;67136;-85
2023/11/12 08:04:47;;;;;;;;;;;;;;;18.15;100.00;98449.10;107196;1256;72721;-84
2023/11/12 08:07:26;;;;;;;5.90;3.30;;;;;;;18.10;100.00;98454.48;106479;1253;62157;-83
2023/11/12 08:09:58;;;;;;;4.70;3.10;;;;;;;18.03;100.00;98456.39;106254;1254;60452;-86
2023/11/12 08:12:32;;;;;;;5.10;3.30;;;;;;;17.97;100.00;98459.33;106411;1259;72011;-85
2023/11/12 08:15:00;;;;;;;5.90;3.60;;;;;;;17.76;100.00;98460.30;107092;1253;66778;-85
2023/11/12 08:17:27;;;;;;;2.90;2.40;;;;;;;17.91;100.00;98464.77;106200;1258;72691;-86
2023/11/12 08:19:55;;;;;;;4.10;3.00;;;;;;;17.96;100.00;98467.61;106520;1258;60378;-85
2023/11/12 08:22:25;;;;;;;2.50;2.20;;;;;;;17.70;100.00;98467.82;106432;1257;60505;-85
2023/11/12 08:24:54;;;;;;;2.70;1.30;;;;;;;17.46;100.00;98471.43;106265;1253;73862;-85
2023/11/12 08:27:22;;;;;;;1.30;1.20;;;;;;;17.46;100.00;98471.36;106928;1257;70552;-85
2023/11/12 08:29:53;;;;;;;1.50;1.40;;;;;;;17.27;100.00;98472.11;106340;1256;74298;-85
2023/11/12 08:32:21;;;;;;;1.80;1.10;;;;;;;17.16;100.00;98473.75;106532;1256;60424;-84
2023/11/12 08:34:54;;;;;;;3.50;1.70;;;;;;;17.10;100.00;98478.79;106403;1253;60407;-85
2023/11/12 08:37:28;;;;;;;2.00;1.90;;;;;;;17.07;100.00;98480.18;106870;1253;73055;-81
2023/11/12 08:39:58;;;;;;;2.40;1.40;;;;;;;17.24;100.00;98482.23;106505;1258;67266;-83
2023/11/12 08:42:26;;;;;;;2.30;1.70;;;;;;;17.29;100.00;98482.61;106450;1258;72671;-83
2023/11/12 08:44:56;;;;;;;1.80;1.70;;;;;;;17.30;100.00;98481.77;106288;1254;60763;-84
2023/11/12 08:47:28;;;;;;;3.60;2.10;;;;;;;17.50;100.00;98481.67;106641;1253;60658;-84
2023/11/12 08:49:56;;;;;;;;;;;;;;;17.47;100.00;98480.29;106867;1253;73957;-84
2023/11/12 08:52:30;;;;;;;3.10;2.20;;;;;;;17.40;100.00;98482.08;106518;1253;67263;-84
2023/11/12 08:54:58;;;;;;;2.70;2.10;;;;;;;17.31;100.00;98484.48;106416;1254;72342;-83
2023/11/12 08:57:35;;;;;;;2.60;2.40;;;;;;;17.35;100.00;98479.98;105879;1256;201874;-84
2023/11/12 09:00:06;;;;;;;1.90;1.80;;;;;;;17.44;100.00;98481.27;106269;1254;60478;-83
2023/11/12 09:02:40;;;;;;;2.90;2.30;;;;;;;17.58;100.00;98487.46;106182;1258;73870;-84
2023/11/12 09:05:14;;;;;;;2.20;1.90;;;;;;;17.47;100.00;98484.55;106724;1253;68301;-84
2023/11/12 09:07:53;;;;;;;3.20;2.20;;;;;;;17.22;100.00;98488.36;106488;1258;72684;-83
2023/11/12 09:10:21;;;;;;;2.30;2.10;;;;;;;16.97;100.00;98490.41;106358;1256;61621;-83
2023/11/12 09:12:55;;;;;;;1.90;1.70;;;;;;;17.03;100.00;98492.16;106566;1253;60458;-83
2023/11/12 09:15:29;;;;;;;2.50;2.10;;;;;;;17.10;100.00;98488.57;106399;1254;72886;-83
2023/11/12 09:17:57;;;;;;;2.60;2.20;;;;;;;17.13;100.00;98490.75;106409;1254;68752;-83
2023/11/12 09:20:25;;;;;;;2.20;1.70;;;;;;;17.14;100.00;98493.37;106274;1254;72716;-83
2023/11/12 09:22:59;;;;;;;2.50;1.70;;;;;;;17.15;100.00;98493.46;106355;1253;60547;-83
2023/11/12 09:25:33;;;;;;;1.60;1.50;;;;;;;17.27;100.00;98496.94;106239;1256;60416;-84
2023/11/12 09:28:02;;;;;;;2.10;1.90;;;;;;;17.27;100.00;98498.69;106283;1255;74260;-83
2023/11/12 09:30:38;;;;;;;3.30;1.90;;;;;;;17.23;100.00;98498.80;106484;1254;67593;-84
2023/11/12 09:36:23;;;;;;;2.70;1.60;;;;;;;17.40;100.00;98505.03;108926;1254;61803;-84
2023/11/12 09:38:50;;;;;;;3.30;2.30;;;;;;;17.54;100.00;98505.71;106511;1253;60556;-83
2023/11/12 09:41:20;;;;;;;2.50;2.10;;;;;;;17.66;100.00;98504.99;106529;1253;73828;-83
2023/11/12 09:43:53;;;;;;;2.30;2.00;;;;;;;17.69;100.00;98505.98;106433;1259;67238;-84
2023/11/12 09:46:25;;;;;;;2.60;2.00;;;;;;;17.80;100.00;98506.46;106460;1259;72624;-83
2023/11/12 09:48:53;;;;;;;2.10;1.80;;;;;;;17.94;100.00;98507.92;106648;1254;60472;-84
2023/11/12 09:51:24;;;;;;;2.80;2.20;;;;;;;17.99;100.00;98508.06;106275;1253;60474;-83
2023/11/12 09:53:52;;;;;;;2.80;2.00;;;;;;;17.89;100.00;98515.27;106270;1258;73762;-84
2023/11/12 09:56:28;;;;;;;2.80;2.40;;;;;;;18.03;100.00;98517.27;106384;1256;67411;-83
2023/11/12 09:59:04;;;;;;;5.20;2.70;;;;;;;18.02;100.00;98519.46;106565;1255;71724;-83
2023/11/12 10:01:38;;;;;;;3.80;2.50;;;;;;;17.91;100.00;98522.25;106301;1255;61689;-83
2023/11/12 10:04:13;;;;;;;4.10;2.00;;;;;;;17.65;100.00;98524.71;106430;1254;60327;-83
2023/11/12 10:06:41;;;;;;;2.80;2.20;;;;;;;17.56;100.00;98525.52;106217;1255;74590;-84
2023/11/12 10:09:31;;;;;;;3.30;2.20;;;;;;;17.58;100.00;98524.54;106378;1258;69243;-84
2023/11/12 10:12:03;;;;;;;3.00;2.10;;;;;;;17.64;100.00;98525.40;106243;1254;74884;-83
2023/11/12 10:14:35;;;;;;;3.70;2.40;;;;;;;17.60;100.00;98529.15;108420;1256;60651;-84
2023/11/12 10:17:06;;;;;;;2.10;1.80;;;;;;;17.56;100.00;98532.80;106315;1257;60886;-83
2023/11/12 10:19:54;;;;;;;2.40;2.20;;;;;;;17.58;100.00;98530.53;106434;1256;75083;-83
2023/11/12 10:22:42;;;;;;;2.60;1.70;;;;;;;17.35;100.00;98535.48;106358;1260;70753;-83
2023/11/12 10:25:10;;;;;;;2.00;1.70;;;;;;;17.29;100.00;98544.39;106480;1259;73580;-83
2023/11/12 10:27:54;;;;;;;1.70;1.60;;;;;;;17.47;100.00;98538.42;106452;1256;61763;-83
2023/11/12 10:30:23;;;;;;;2.10;1.90;;;;;;;17.50;100.00;98540.05;106592;1258;60557;-83
2023/11/12 10:33:16;;;;;;;;;;;;;;;17.42;100.00;98543.39;106191;1253;74875;-83
2023/11/12 10:35:44;;;;;;;3.70;2.20;;;;;;;17.38;100.00;98544.20;106332;1253;70273;-83
2023/11/12 10:38:18;;;;;;;2.10;1.20;;;;;;;17.33;100.00;98547.75;106278;1253;70531;-83
2023/11/12 10:41:02;;;;;;;2.10;1.50;;;;;;;17.46;100.00;98548.90;106210;1258;62690;-83
2023/11/12 10:43:36;;;;;;;3.10;2.20;;;;;;;17.47;100.00;98550.35;106573;1257;60323;-83
2023/11/12 10:46:04;;;;;;;3.30;2.70;;;;;;;17.53;100.00;98554.45;106259;1258;73800;-83
2023/11/12 10:48:42;;;;;;;2.10;1.40;;;;;;;17.52;100.00;98554.52;106330;1255;67121;-83
2023/11/12 10:51:16;;;;;;;2.10;1.90;;;;;;;17.43;100.00;98562.73;106232;1253;73200;-83
2023/11/12 10:53:54;;;;;;;2.30;1.70;;;;;;;17.39;100.00;98566.86;106822;1256;60438;-83
2023/11/12 10:56:22;;;;;;;1.40;1.30;;;;;;;17.51;100.00;98566.64;106821;1255;62074;-84
2023/11/12 10:58:56;;;;;;;2.10;1.40;;;;;;;17.64;100.00;98569.84;106475;1259;72187;-83
2023/11/12 11:01:29;;;;;;;1.30;1.10;;;;;;;17.67;100.00;98572.09;106090;1257;68531;-84
2023/11/12 11:03:56;;;;;;;3.00;1.60;;;;;;;17.61;100.00;98580.14;106389;1253;71847;-83
2023/11/12 11:06:25;;;;;;;1.60;1.40;;;;;;;17.54;100.00;98577.89;108166;1256;60444;-85
2023/11/12 11:08:59;;;;;;;1.80;1.20;;;;;;;17.67;100.00;98577.70;107836;1258;59269;-85
2023/11/12 11:11:28;;;;;;;2.50;1.30;;;;;;;17.78;100.00;98577.39;106288;1259;75321;-84
2023/11/12 11:13:56;;;;;;;1.30;0.90;;;;;;;17.91;100.00;98581.06;106485;1257;68717;-83
2023/11/12 11:16:57;;;;;;;1.20;0.90;;;;;;;17.88;100.00;98582.84;106351;1253;71522;-84
2023/11/12 11:19:44;;;;;;;1.10;1.00;;;;;;;17.97;100.00;98594.96;106292;1258;61723;-85
2023/11/12 11:22:29;;;;;;;1.10;0.90;;;;;;;17.95;100.00;98604.80;106317;1258;62513;-85
2023/11/12 11:25:24;;;;;;;1.90;1.30;;;;;;;17.91;100.00;98609.94;106365;1259;73804;-83
2023/11/12 11:28:19;;;;;;;1.50;1.00;;;;;;;17.86;100.00;98613.59;106286;1260;68208;-83
2023/11/12 11:31:13;;;;;;;0.80;0.80;;;;;;;17.86;100.00;98621.73;106129;1254;72507;-83
2023/11/12 11:33:51;;;;;;;0.70;0.50;;;;;;;17.90;100.00;98626.20;106154;1257;60718;-83
2023/11/12 11:36:22;;;;;;;0.80;0.40;;;;;;;17.67;100.00;98638.61;106177;1259;62571;-82
2023/11/12 11:39:02;;;;;;;1.20;0.70;;;;;;;17.61;100.00;98641.92;106367;1253;72680;-83
2023/11/12 11:42:00;;;;;;;0.70;0.60;;;;;;;17.42;100.00;98653.20;106387;1257;70661;-83
2023/11/12 11:44:41;;;;;;;1.10;0.70;;;;;;;17.24;100.00;98659.20;107414;1254;74947;-83
2023/11/12 11:47:26;;;;;;;0.80;0.40;;;;;;;17.07;100.00;98666.95;106676;1258;61020;-83
2023/11/12 11:50:04;;;;;;;0.50;0.40;;;;;;;16.92;100.00;98665.41;106758;1257;60982;-83
2023/11/12 11:52:42;;;;;;;0.40;0.40;;;;;;;16.88;100.00;98668.40;106211;1258;73836;-84
2023/11/12 11:55:20;;;;;;;0.60;0.60;;;;;;;16.78;100.00;98673.23;106102;1259;70452;-83
2023/11/12 11:57:54;;;;;;;0.40;0.30;;;;;;;16.73;100.00;98677.38;106438;1257;71594;-83
2023/11/12 12:00:23;;;;;;;0.80;0.60;;;;;;;16.88;100.00;98680.30;106113;1261;60638;-84
2023/11/12 12:03:01;;;;;;;1.90;0.50;;;;;;;16.99;100.00;98686.81;106144;1254;60538;-84
2023/11/12 12:05:32;;;;;;;0.70;0.60;;;;;;;16.98;100.00;98693.26;106404;1260;74528;-84
2023/11/12 12:08:06;;;;;;;2.00;0.40;;;;;;;17.01;100.00;98695.99;106362;1259;67313;-83
2023/11/12 12:10:35;;;;;;;0.40;0.30;;;;;;;16.77;100.00;98702.21;106606;1255;71556;-85
2023/11/12 12:13:08;;;;;;;1.20;0.20;;;;;;;16.81;100.00;98708.84;106253;1253;61669;-86
2023/11/12 12:15:45;;;;;;;;;;;;;;;16.82;100.00;98710.91;106363;1258;60541;-84
2023/11/12 12:18:26;;;;;;;0.30;0.30;;;;;;;16.79;100.00;98713.05;106381;1255;75258;-85
2023/11/12 12:21:03;;;;;;;0.70;0.40;;;;;;;16.80;100.00;98724.73;106162;1259;71073;-85
2023/11/12 12:23:30;;;;;;;0.70;0.40;;;;;;;16.87;100.00;98722.75;106523;1258;71397;-85
2023/11/12 12:26:11;;;;;;;0.40;0.40;;;;;;;16.77;100.00;98734.13;107310;1258;60473;-85
2023/11/12 12:28:46;;;;;;;0.30;0.30;;;;;;;16.72;100.00;98732.43;106493;1255;61280;-84
2023/11/12 12:31:13;;;;;;;0.70;0.40;;;;;;;16.82;100.00;98741.43;106355;1254;73860;-84
2023/11/12 12:33:59;;;;;;;1.10;0.50;;;;;;;16.95;100.00;98744.29;106272;1260;69501;-84
2023/11/12 12:36:34;;;;;;;0.90;0.70;;;;;;;16.92;100.00;98749.98;106266;1258;72707;-85
2023/11/12 12:39:06;;;;;;;1.20;0.70;;;;;;;16.99;100.00;98754.92;106248;1257;62660;-85
2023/11/12 12:41:34;;;;;;;0.80;0.40;;;;;;;17.01;100.00;98757.33;106204;1257;59308;-84
2023/11/12 12:44:22;;;;;;;0.30;0.30;;;;;;;16.91;100.00;98763.98;106493;1259;72569;-84
2023/11/12 12:46:56;;;;;;;1.70;0.40;;;;;;;16.82;100.00;98768.77;106356;1259;67720;-85
2023/11/12 12:49:34;;;;;;;1.40;0.50;;;;;;;16.67;100.00;98771.58;106254;1254;70925;-85
2023/11/12 12:52:21;;;;;;;0.60;0.50;;;;;;;16.78;100.00;98776.88;106143;1256;64033;-84
2023/11/12 12:54:53;;;;;;;1.50;1.00;;;;;;;16.79;100.00;98783.27;106276;1260;60447;-85
2023/11/12 12:57:24;;;;;;;1.10;0.90;;;;;;;16.73;100.00;98781.31;106162;1260;73915;-84
2023/11/12 12:59:52;;;;;;;0.60;0.40;;;;;;;16.84;100.00;98787.33;106125;1254;67127;-84
2023/11/12 13:02:22;;;;;;;1.80;0.60;;;;;;;16.89;100.00;98790.82;106313;1254;74613;-84
2023/11/12 13:04:51;;;;;;;1.30;0.80;;;;;;;16.88;100.00;98787.73;106352;1260;60539;-85
2023/11/12 13:07:24;;;;;;;0.40;0.40;;;;;;;16.98;100.00;98798.83;106201;1257;60370;-85
2023/11/12 13:09:57;;;;;;;2.20;0.60;;;;;;;16.95;100.00;98799.94;106144;1259;73878;-84
2023/11/12 13:12:30;;;;;;;1.10;0.40;;;;;;;16.92;100.00;98804.98;106228;1261;68373;-84
2023/11/12 13:15:03;;;;;;;1.70;0.60;;;;;;;16.92;100.00;98808.92;106350;1260;71648;-85
2023/11/12 13:17:37;;;;;;;0.40;0.40;;;;;;;16.93;100.00;98813.27;106475;1257;60468;-83
2023/11/12 13:20:21;;;;;;;1.10;0.70;;;;;;;16.99;100.00;98822.23;106363;1259;60410;-83
2023/11/12 13:22:50;;;;;;;3.60;0.50;;;;;;;16.95;100.00;98825.17;107764;1254;72587;-85
2023/11/12 13:25:24;;;;;;;2.50;0.70;;;;;;;16.87;100.00;98836.98;106303;1261;68381;-85
2023/11/12 13:27:53;;;;;;;2.80;2.10;;;;;;;16.92;100.00;98838.66;106435;1254;73043;-83
2023/11/12 13:30:28;;;;;;;2.40;1.20;;;;;;;16.91;100.00;98843.02;106264;1254;60700;-84
2023/11/12 13:32:56;;;;;;;7.90;3.70;;;;;;;16.87;100.00;98850.98;106459;1254;60306;-85
2023/11/12 13:35:30;;;;;;;3.40;2.10;;;;;;;16.76;100.00;98853.65;106342;1259;73906;-83
2023/11/12 13:37:57;;;;;;;0.80;0.80;;;;;;;16.79;100.00;98855.36;106407;1260;69947;-85
2023/11/12 13:40:39;;;;;;;1.70;1.00;;;;;;;16.70;100.00;98859.73;106296;1259;73589;-85
2023/11/12 13:43:07;;;;;;;1.30;0.80;;;;;;;16.70;100.00;98866.58;106313;1254;63593;-85
2023/11/12 13:45:38;;;;;;;1.20;0.90;;;;;;;16.66;100.00;98871.63;106350;1254;60442;-85
2023/11/12 13:48:08;;;;;;;1.70;1.40;;;;;;;16.72;100.00;98873.10;106310;1257;75945;-84
2023/11/12 13:50:49;;;;;;;1.10;0.70;;;;;;;16.77;100.00;98870.05;106294;1259;68632;-84
2023/11/12 13:53:18;;;;;;;1.70;1.60;;;;;;;16.77;100.00;98885.60;106317;1254;72633;-84
2023/11/12 13:55:55;;;;;;;3.20;1.10;;;;;;;16.83;100.00;98888.48;106174;1260;62701;-84
2023/11/12 13:58:27;;;;;;;2.10;0.70;;;;;;;16.90;100.00;98892.92;106246;1254;60544;-84
2023/11/12 14:00:55;;;;;;;1.20;0.90;;;;;;;16.83;100.00;98894.80;106287;1259;72743;-84
2023/11/12 14:03:23;;;;;;;2.60;1.00;;;;;;;16.70;100.00;98906.53;106601;1254;69989;-85
2023/11/12 14:05:55;;;;;;;2.60;1.00;;;;;;;16.70;100.00;98907.08;106287;1259;75012;-85
2023/11/12 14:08:29;;;;;;;1.60;1.10;;;;;;;16.78;100.00;98913.44;107284;1259;61818;-84
2023/11/12 14:11:01;;;;;;;0.90;0.80;;;;;;;16.81;100.00;98914.61;107938;1255;58388;-86
2023/11/12 14:13:33;;;;;;;;;;;;;;;16.72;100.00;98924.06;106346;1254;73982;-84
2023/11/12 14:16:11;;;;;;;1.40;0.80;;;;;;;16.62;100.00;98928.64;106432;1258;69296;-85
2023/11/12 14:18:45;;;;;;;1.10;1.00;;;;;;;16.72;100.00;98934.08;106264;1257;74469;-85
2023/11/12 14:21:18;;;;;;;0.70;0.60;;;;;;;16.83;100.00;98939.88;106219;1257;63808;-84
2023/11/12 14:23:50;;;;;;;1.40;0.90;;;;;;;16.75;100.00;98945.19;106187;1259;62426;-85
2023/11/12 14:26:26;;;;;;;1.60;1.30;;;;;;;16.92;100.00;98950.89;106594;1254;73810;-85
2023/11/12 14:29:00;;;;;;;2.10;1.40;;;;;;;16.75;100.00;98956.63;106098;1259;68434;-85
2023/11/12 14:31:34;;;;;;;2.10;1.20;;;;;;;16.79;100.00;98969.16;106394;1254;74671;-85
2023/11/12 14:34:14;;;;;;;2.40;1.50;;;;;;;16.77;100.00;98972.59;106218;1259;63792;-85
2023/11/12 14:36:45;;;;;;;8.30;2.60;;;;;;;16.89;100.00;98980.05;106382;1258;60335;-85
2023/11/12 14:39:23;;;;;;;5.60;2.30;;;;;;;16.85;100.00;98985.65;106305;1258;75265;-85
2023/11/12 14:41:55;;;;;;;2.90;1.80;;;;;;;16.95;100.00;98990.45;106317;1257;67567;-85
2023/11/12 14:44:33;;;;;;;3.60;2.10;;;;;;;17.07;100.00;98996.98;106142;1259;74127;-85
2023/11/12 14:47:00;;;;;;;3.10;2.50;;;;;;;17.24;99.32;98997.45;106297;1254;60524;-85
2023/11/12 14:49:32;;;;;;;2.80;2.20;;;;;;;17.36;97.88;98998.58;106178;1254;61164;-85
2023/11/12 14:52:06;;;;;;;2.10;1.80;;;;;;;17.28;97.88;99005.89;106295;1258;75187;-85
2023/11/12 14:54:34;;;;;;;4.60;2.70;;;;;;;17.25;97.34;99006.77;107223;1254;67363;-86